KSFB

Orlando Sanford International Airport

Orlando, Florida, USA
METAR KSFB 211953Z 36010KT 10SM SCT043 BKN050 23/14 A3016 RMK AO2 SLP214 T02280139
Observed Flight Rules
Jan-21 @ 19:53 UTC (35 minutes ago) Visual Flight Rules
Wind Visibility Clouds
360° at 10 knots 10 miles
  • Scattered at 4,300' AGL
  • Broken at 5,000' AGL
Temperatures Readings
Current 23°C / 73°F
Dewpoint 14°C / 57°F
Humidity 57%
Altimeter 30.16" Hg
Pressure 1021.4 hPa
Elevation 17
METAR KSFB 211953Z 36010KT 10SM SCT043 BKN050 23/14 A3016 RMK AO2 SLP214 T02280139
Observed Flight Rules
Jan-21 @ 19:53 UTC
(35 minutes ago)
VFR
Wind Visibility
360° at 10 knots 10 miles
Clouds
  • Scattered at 4,300' AGL
  • Broken at 5,000' AGL
Temperature Dewpoint
23°C / 73°F 14°C / 57°F
Humidity Altimeter Pressure
57% 30.16" Hg 1021.4 hPa